sensor_id;sensor_type;location;lat;lon;timestamp;pressure;altitude;pressure_sealevel;temperature;humidity
61345;BME280;47216;42.656;23.232;2022-09-28T00:01:30;92945.78;;;12.84;80.84
61345;BME280;47216;42.656;23.232;2022-09-28T00:03:57;92943.00;;;12.75;80.74
61345;BME280;47216;42.656;23.232;2022-09-28T00:06:25;92943.38;;;12.69;80.53
61345;BME280;47216;42.656;23.232;2022-09-28T00:08:54;92949.59;;;12.73;80.12
61345;BME280;47216;42.656;23.232;2022-09-28T00:11:22;92943.84;;;12.52;80.16
61345;BME280;47216;42.656;23.232;2022-09-28T00:13:53;92946.78;;;12.26;80.80
61345;BME280;47216;42.656;23.232;2022-09-28T00:16:24;92947.41;;;12.18;81.87
61345;BME280;47216;42.656;23.232;2022-09-28T00:18:51;92941.34;;;12.23;82.14
61345;BME280;47216;42.656;23.232;2022-09-28T00:21:20;92932.09;;;12.30;81.89
61345;BME280;47216;42.656;23.232;2022-09-28T00:23:51;92932.31;;;12.34;81.17
61345;BME280;47216;42.656;23.232;2022-09-28T00:26:38;92934.69;;;12.11;81.49
61345;BME280;47216;42.656;23.232;2022-09-28T00:29:07;92939.16;;;12.06;81.58
61345;BME280;47216;42.656;23.232;2022-09-28T00:31:40;92932.13;;;12.06;81.83
61345;BME280;47216;42.656;23.232;2022-09-28T00:34:07;92932.16;;;12.01;81.89
61345;BME280;47216;42.656;23.232;2022-09-28T00:36:34;92931.06;;;12.07;82.00
61345;BME280;47216;42.656;23.232;2022-09-28T00:39:03;92919.75;;;12.12;81.85
61345;BME280;47216;42.656;23.232;2022-09-28T00:41:30;92928.16;;;12.09;81.89
61345;BME280;47216;42.656;23.232;2022-09-28T00:44:29;92924.31;;;12.01;82.01
61345;BME280;47216;42.656;23.232;2022-09-28T00:46:59;92928.59;;;11.92;82.41
61345;BME280;47216;42.656;23.232;2022-09-28T00:49:31;92933.78;;;11.97;82.47
61345;BME280;47216;42.656;23.232;2022-09-28T00:52:00;92928.69;;;12.11;81.91
61345;BME280;47216;42.656;23.232;2022-09-28T00:54:29;92926.91;;;12.06;81.91
61345;BME280;47216;42.656;23.232;2022-09-28T00:56:56;92932.28;;;11.91;81.73
61345;BME280;47216;42.656;23.232;2022-09-28T00:59:23;92928.63;;;11.87;82.22
61345;BME280;47216;42.656;23.232;2022-09-28T01:01:52;92940.69;;;11.88;82.22
61345;BME280;47216;42.656;23.232;2022-09-28T01:04:18;92936.16;;;11.93;82.54
61345;BME280;47216;42.656;23.232;2022-09-28T01:06:45;92927.31;;;11.89;82.46
61345;BME280;47216;42.656;23.232;2022-09-28T01:09:13;92931.81;;;11.84;82.23
61345;BME280;47216;42.656;23.232;2022-09-28T01:11:40;92927.50;;;11.69;82.14
61345;BME280;47216;42.656;23.232;2022-09-28T01:14:11;92928.56;;;11.68;82.12
61345;BME280;47216;42.656;23.232;2022-09-28T01:16:41;92934.88;;;11.62;82.24
61345;BME280;47216;42.656;23.232;2022-09-28T01:19:27;92935.66;;;11.62;82.57
61345;BME280;47216;42.656;23.232;2022-09-28T01:22:10;92933.53;;;11.69;83.04
61345;BME280;47216;42.656;23.232;2022-09-28T01:24:44;92928.38;;;11.59;82.92
61345;BME280;47216;42.656;23.232;2022-09-28T01:27:14;92925.38;;;11.47;82.91
61345;BME280;47216;42.656;23.232;2022-09-28T01:29:48;92924.03;;;11.49;82.98
61345;BME280;47216;42.656;23.232;2022-09-28T01:32:26;92925.94;;;11.39;82.91
61345;BME280;47216;42.656;23.232;2022-09-28T01:35:02;92940.03;;;11.43;83.03
61345;BME280;47216;42.656;23.232;2022-09-28T01:37:35;92932.94;;;11.48;83.24
61345;BME280;47216;42.656;23.232;2022-09-28T01:40:06;92941.38;;;11.64;83.03
61345;BME280;47216;42.656;23.232;2022-09-28T01:42:38;92943.53;;;11.57;82.63
61345;BME280;47216;42.656;23.232;2022-09-28T01:45:12;92940.63;;;11.34;82.66
61345;BME280;47216;42.656;23.232;2022-09-28T01:47:41;92946.66;;;11.30;82.92
61345;BME280;47216;42.656;23.232;2022-09-28T01:50:13;92952.47;;;11.22;83.79
61345;BME280;47216;42.656;23.232;2022-09-28T01:52:46;92948.00;;;11.22;83.61
61345;BME280;47216;42.656;23.232;2022-09-28T01:55:19;92953.16;;;11.32;83.95
61345;BME280;47216;42.656;23.232;2022-09-28T01:57:54;92945.75;;;11.45;83.73
61345;BME280;47216;42.656;23.232;2022-09-28T02:00:23;92944.88;;;11.54;83.36
61345;BME280;47216;42.656;23.232;2022-09-28T02:02:53;92947.81;;;11.48;82.75
61345;BME280;47216;42.656;23.232;2022-09-28T02:05:25;92949.44;;;11.39;82.93
61345;BME280;47216;42.656;23.232;2022-09-28T02:07:58;92937.41;;;11.43;83.46
61345;BME280;47216;42.656;23.232;2022-09-28T02:10:31;92945.19;;;11.48;83.11
61345;BME280;47216;42.656;23.232;2022-09-28T02:13:02;92945.47;;;11.46;82.81
61345;BME280;47216;42.656;23.232;2022-09-28T02:15:35;92950.72;;;11.41;82.54
61345;BME280;47216;42.656;23.232;2022-09-28T02:18:06;92946.75;;;11.49;82.97
61345;BME280;47216;42.656;23.232;2022-09-28T02:20:35;92947.28;;;11.51;82.47
61345;BME280;47216;42.656;23.232;2022-09-28T02:23:03;92953.84;;;11.43;82.20
61345;BME280;47216;42.656;23.232;2022-09-28T02:25:35;92943.00;;;11.31;82.14
61345;BME280;47216;42.656;23.232;2022-09-28T02:28:07;92942.69;;;11.38;82.33
61345;BME280;47216;42.656;23.232;2022-09-28T02:30:36;92938.03;;;11.29;81.91
61345;BME280;47216;42.656;23.232;2022-09-28T02:33:12;92934.59;;;11.39;82.00
61345;BME280;47216;42.656;23.232;2022-09-28T02:35:41;92939.31;;;11.32;81.86
61345;BME280;47216;42.656;23.232;2022-09-28T02:38:09;92935.22;;;11.26;82.12
61345;BME280;47216;42.656;23.232;2022-09-28T02:40:37;92928.88;;;11.32;82.20
61345;BME280;47216;42.656;23.232;2022-09-28T02:43:13;92935.06;;;11.41;81.77
61345;BME280;47216;42.656;23.232;2022-09-28T02:45:49;92940.34;;;11.36;81.77
61345;BME280;47216;42.656;23.232;2022-09-28T02:48:39;92928.53;;;11.44;82.01
61345;BME280;47216;42.656;23.232;2022-09-28T02:51:19;92934.66;;;11.58;81.71
61345;BME280;47216;42.656;23.232;2022-09-28T02:54:05;92929.41;;;11.63;81.40
61345;BME280;47216;42.656;23.232;2022-09-28T02:56:52;92939.22;;;11.71;80.84
61345;BME280;47216;42.656;23.232;2022-09-28T02:59:38;92945.50;;;11.70;80.43
61345;BME280;47216;42.656;23.232;2022-09-28T03:02:12;92946.97;;;11.82;80.43
61345;BME280;47216;42.656;23.232;2022-09-28T03:04:47;92961.03;;;11.86;80.04
61345;BME280;47216;42.656;23.232;2022-09-28T03:07:23;92956.22;;;11.98;79.52
61345;BME280;47216;42.656;23.232;2022-09-28T03:09:57;92964.91;;;11.93;79.05
61345;BME280;47216;42.656;23.232;2022-09-28T03:12:27;92968.00;;;11.66;78.99
61345;BME280;47216;42.656;23.232;2022-09-28T03:15:13;92964.84;;;11.69;79.45
61345;BME280;47216;42.656;23.232;2022-09-28T03:17:44;92969.19;;;11.50;80.59
61345;BME280;47216;42.656;23.232;2022-09-28T03:20:12;92978.13;;;11.44;81.40
61345;BME280;47216;42.656;23.232;2022-09-28T03:22:39;92985.47;;;11.42;81.66
61345;BME280;47216;42.656;23.232;2022-09-28T03:25:07;92987.56;;;11.40;82.21
61345;BME280;47216;42.656;23.232;2022-09-28T03:27:34;92983.22;;;11.59;82.17
61345;BME280;47216;42.656;23.232;2022-09-28T03:30:02;92977.41;;;11.67;81.96
61345;BME280;47216;42.656;23.232;2022-09-28T03:32:30;92989.75;;;11.56;81.69
61345;BME280;47216;42.656;23.232;2022-09-28T03:34:57;92988.31;;;11.74;81.66
61345;BME280;47216;42.656;23.232;2022-09-28T03:37:25;92987.75;;;11.77;81.70
61345;BME280;47216;42.656;23.232;2022-09-28T03:39:52;92982.84;;;11.71;81.77
61345;BME280;47216;42.656;23.232;2022-09-28T03:42:19;92970.53;;;11.76;81.66
61345;BME280;47216;42.656;23.232;2022-09-28T03:44:46;92966.25;;;11.86;81.76
61345;BME280;47216;42.656;23.232;2022-09-28T03:47:12;92975.84;;;11.66;82.52
61345;BME280;47216;42.656;23.232;2022-09-28T03:49:42;92989.00;;;11.56;83.33
61345;BME280;47216;42.656;23.232;2022-09-28T03:52:10;92985.41;;;11.47;83.90
61345;BME280;47216;42.656;23.232;2022-09-28T03:54:37;92981.94;;;11.56;84.03
61345;BME280;47216;42.656;23.232;2022-09-28T03:57:04;92975.22;;;11.45;84.78
61345;BME280;47216;42.656;23.232;2022-09-28T03:59:31;92978.75;;;11.60;84.56
61345;BME280;47216;42.656;23.232;2022-09-28T04:02:02;92972.50;;;11.61;85.13
61345;BME280;47216;42.656;23.232;2022-09-28T04:04:29;92986.22;;;11.76;84.81
61345;BME280;47216;42.656;23.232;2022-09-28T04:06:57;92975.66;;;11.87;84.70
61345;BME280;47216;42.656;23.232;2022-09-28T04:09:24;92980.25;;;12.00;83.69
61345;BME280;47216;42.656;23.232;2022-09-28T04:11:50;92979.16;;;12.06;83.47
61345;BME280;47216;42.656;23.232;2022-09-28T04:14:17;92979.69;;;12.03;83.91
61345;BME280;47216;42.656;23.232;2022-09-28T04:16:44;92981.91;;;12.15;83.35
61345;BME280;47216;42.656;23.232;2022-09-28T04:19:12;92981.41;;;12.13;83.22
61345;BME280;47216;42.656;23.232;2022-09-28T04:21:39;92987.38;;;12.18;83.21
61345;BME280;47216;42.656;23.232;2022-09-28T04:24:08;92987.75;;;12.31;82.97
61345;BME280;47216;42.656;23.232;2022-09-28T04:26:35;92996.88;;;12.33;82.55
61345;BME280;47216;42.656;23.232;2022-09-28T04:29:01;92998.50;;;12.29;82.48
61345;BME280;47216;42.656;23.232;2022-09-28T04:31:45;92987.38;;;12.18;82.88
61345;BME280;47216;42.656;23.232;2022-09-28T04:34:13;92994.28;;;12.09;83.24
61345;BME280;47216;42.656;23.232;2022-09-28T04:36:41;92980.09;;;12.15;83.53
61345;BME280;47216;42.656;23.232;2022-09-28T04:39:10;92982.16;;;12.18;83.04
61345;BME280;47216;42.656;23.232;2022-09-28T04:41:37;92984.50;;;12.20;83.84
61345;BME280;47216;42.656;23.232;2022-09-28T04:44:04;92980.03;;;12.21;83.76
61345;BME280;47216;42.656;23.232;2022-09-28T04:46:30;92978.78;;;12.18;83.60
61345;BME280;47216;42.656;23.232;2022-09-28T04:48:57;92975.59;;;12.21;83.61
61345;BME280;47216;42.656;23.232;2022-09-28T04:51:24;92974.25;;;12.24;83.67
61345;BME280;47216;42.656;23.232;2022-09-28T04:53:51;92978.63;;;12.28;83.12
61345;BME280;47216;42.656;23.232;2022-09-28T04:56:19;92979.81;;;12.41;83.28
61345;BME280;47216;42.656;23.232;2022-09-28T04:58:46;92988.75;;;12.35;82.96
61345;BME280;47216;42.656;23.232;2022-09-28T05:01:14;92987.59;;;12.46;82.81
61345;BME280;47216;42.656;23.232;2022-09-28T05:03:41;92987.94;;;12.39;83.06
61345;BME280;47216;42.656;23.232;2022-09-28T05:06:11;92993.81;;;12.26;83.88
61345;BME280;47216;42.656;23.232;2022-09-28T05:08:38;92992.44;;;12.34;83.85
61345;BME280;47216;42.656;23.232;2022-09-28T05:11:06;92991.16;;;12.31;84.82
61345;BME280;47216;42.656;23.232;2022-09-28T05:13:39;92995.28;;;12.37;84.60
61345;BME280;47216;42.656;23.232;2022-09-28T05:16:08;92990.13;;;12.51;84.67
61345;BME280;47216;42.656;23.232;2022-09-28T05:18:35;92992.97;;;12.31;85.04
61345;BME280;47216;42.656;23.232;2022-09-28T05:21:02;92987.50;;;12.32;85.29
61345;BME280;47216;42.656;23.232;2022-09-28T05:23:28;92985.38;;;12.34;85.25
61345;BME280;47216;42.656;23.232;2022-09-28T05:25:55;92977.69;;;12.19;86.62
61345;BME280;47216;42.656;23.232;2022-09-28T05:28:25;92985.16;;;12.31;86.99
61345;BME280;47216;42.656;23.232;2022-09-28T05:30:57;92978.88;;;12.32;87.53
61345;BME280;47216;42.656;23.232;2022-09-28T05:33:24;92988.19;;;12.62;86.96
61345;BME280;47216;42.656;23.232;2022-09-28T05:35:50;92992.44;;;12.77;86.84
61345;BME280;47216;42.656;23.232;2022-09-28T05:38:17;92991.16;;;12.93;86.12
61345;BME280;47216;42.656;23.232;2022-09-28T05:40:44;92998.31;;;13.07;85.37
61345;BME280;47216;42.656;23.232;2022-09-28T05:43:11;92993.66;;;13.22;85.44
61345;BME280;47216;42.656;23.232;2022-09-28T05:45:38;92989.56;;;13.35;84.36
61345;BME280;47216;42.656;23.232;2022-09-28T05:48:06;92986.22;;;13.49;84.21
61345;BME280;47216;42.656;23.232;2022-09-28T05:50:33;92990.13;;;13.65;83.98
61345;BME280;47216;42.656;23.232;2022-09-28T05:53:01;92982.81;;;13.81;83.28
61345;BME280;47216;42.656;23.232;2022-09-28T05:55:28;92990.09;;;13.98;83.35
61345;BME280;47216;42.656;23.232;2022-09-28T05:57:57;92985.56;;;14.17;82.06
61345;BME280;47216;42.656;23.232;2022-09-28T06:00:24;92974.31;;;14.31;82.44
61345;BME280;47216;42.656;23.232;2022-09-28T06:02:55;92974.59;;;14.29;82.30
61345;BME280;47216;42.656;23.232;2022-09-28T06:05:24;92970.44;;;14.42;82.37
61345;BME280;47216;42.656;23.232;2022-09-28T06:07:51;92975.25;;;14.48;82.54
61345;BME280;47216;42.656;23.232;2022-09-28T06:10:18;92977.81;;;14.54;82.67
61345;BME280;47216;42.656;23.232;2022-09-28T06:12:44;92978.41;;;14.64;82.49
61345;BME280;47216;42.656;23.232;2022-09-28T06:15:13;92973.69;;;14.89;81.87
61345;BME280;47216;42.656;23.232;2022-09-28T06:17:41;92985.75;;;14.90;80.89
61345;BME280;47216;42.656;23.232;2022-09-28T06:20:09;92992.38;;;14.74;80.78
61345;BME280;47216;42.656;23.232;2022-09-28T06:22:37;92992.78;;;14.67;81.00
61345;BME280;47216;42.656;23.232;2022-09-28T06:25:05;92996.66;;;14.69;80.82
61345;BME280;47216;42.656;23.232;2022-09-28T06:27:32;93004.53;;;14.69;81.40
61345;BME280;47216;42.656;23.232;2022-09-28T06:30:00;92997.06;;;14.77;81.34
61345;BME280;47216;42.656;23.232;2022-09-28T06:32:28;92999.56;;;14.82;81.13
61345;BME280;47216;42.656;23.232;2022-09-28T06:34:55;93008.47;;;14.95;81.22
61345;BME280;47216;42.656;23.232;2022-09-28T06:37:22;93005.78;;;15.00;81.05
61345;BME280;47216;42.656;23.232;2022-09-28T06:39:52;93008.69;;;14.98;80.94
61345;BME280;47216;42.656;23.232;2022-09-28T06:42:19;93014.63;;;14.90;80.84
61345;BME280;47216;42.656;23.232;2022-09-28T06:44:46;93017.47;;;14.80;81.35
61345;BME280;47216;42.656;23.232;2022-09-28T06:47:13;93014.56;;;14.81;81.35
61345;BME280;47216;42.656;23.232;2022-09-28T06:49:41;93024.34;;;14.89;81.29
61345;BME280;47216;42.656;23.232;2022-09-28T06:52:08;93014.63;;;14.90;81.16
61345;BME280;47216;42.656;23.232;2022-09-28T06:54:36;93009.06;;;14.91;81.81
61345;BME280;47216;42.656;23.232;2022-09-28T06:57:04;93004.19;;;14.99;81.72
61345;BME280;47216;42.656;23.232;2022-09-28T06:59:31;93003.53;;;14.93;81.77
61345;BME280;47216;42.656;23.232;2022-09-28T07:01:59;93008.69;;;14.98;81.92
61345;BME280;47216;42.656;23.232;2022-09-28T07:04:25;93008.28;;;15.05;81.60
61345;BME280;47216;42.656;23.232;2022-09-28T07:06:52;93011.00;;;15.13;81.28
61345;BME280;47216;42.656;23.232;2022-09-28T07:09:19;93013.66;;;15.22;81.09
61345;BME280;47216;42.656;23.232;2022-09-28T07:11:46;93022.50;;;15.26;81.17
61345;BME280;47216;42.656;23.232;2022-09-28T07:14:14;93024.44;;;15.34;81.05
61345;BME280;47216;42.656;23.232;2022-09-28T07:16:41;93027.47;;;15.28;80.42
61345;BME280;47216;42.656;23.232;2022-09-28T07:19:08;93025.28;;;15.44;80.55
61345;BME280;47216;42.656;23.232;2022-09-28T07:21:35;93024.22;;;15.67;80.04
61345;BME280;47216;42.656;23.232;2022-09-28T07:24:01;93034.44;;;15.69;79.59
61345;BME280;47216;42.656;23.232;2022-09-28T07:26:29;93029.94;;;15.83;79.56
61345;BME280;47216;42.656;23.232;2022-09-28T07:28:57;93039.66;;;15.83;79.67
61345;BME280;47216;42.656;23.232;2022-09-28T07:31:25;93034.09;;;15.84;79.38
61345;BME280;47216;42.656;23.232;2022-09-28T07:33:53;93035.53;;;15.90;79.73
61345;BME280;47216;42.656;23.232;2022-09-28T07:36:21;93037.91;;;16.01;79.77
61345;BME280;47216;42.656;23.232;2022-09-28T07:38:48;93034.44;;;16.14;78.90
61345;BME280;47216;42.656;23.232;2022-09-28T07:41:15;93035.44;;;16.27;78.85
61345;BME280;47216;42.656;23.232;2022-09-28T07:43:46;93031.47;;;16.47;77.30
61345;BME280;47216;42.656;23.232;2022-09-28T07:46:14;93029.38;;;16.57;77.04
61345;BME280;47216;42.656;23.232;2022-09-28T07:48:43;93030.28;;;16.53;76.80
61345;BME280;47216;42.656;23.232;2022-09-28T07:51:10;93036.97;;;16.59;76.07
61345;BME280;47216;42.656;23.232;2022-09-28T07:53:37;93049.38;;;16.67;74.97
61345;BME280;47216;42.656;23.232;2022-09-28T07:56:04;93027.50;;;16.58;75.29
61345;BME280;47216;42.656;23.232;2022-09-28T07:58:34;93024.19;;;16.44;74.84
61345;BME280;47216;42.656;23.232;2022-09-28T08:01:05;93021.97;;;16.68;74.90
61345;BME280;47216;42.656;23.232;2022-09-28T08:03:33;93026.81;;;16.84;74.66
61345;BME280;47216;42.656;23.232;2022-09-28T08:06:03;93035.38;;;16.98;73.58
61345;BME280;47216;42.656;23.232;2022-09-28T08:08:32;93034.16;;;17.04;72.98
61345;BME280;47216;42.656;23.232;2022-09-28T08:11:00;93040.06;;;17.01;73.07
61345;BME280;47216;42.656;23.232;2022-09-28T08:13:26;93041.13;;;17.00;73.22
61345;BME280;47216;42.656;23.232;2022-09-28T08:15:59;93040.38;;;17.08;72.76
61345;BME280;47216;42.656;23.232;2022-09-28T08:18:26;93041.75;;;17.14;71.96
61345;BME280;47216;42.656;23.232;2022-09-28T08:20:53;93043.63;;;17.22;72.02
61345;BME280;47216;42.656;23.232;2022-09-28T08:23:38;93034.97;;;17.31;72.14
61345;BME280;47216;42.656;23.232;2022-09-28T08:26:06;93043.31;;;17.33;71.46
61345;BME280;47216;42.656;23.232;2022-09-28T08:28:33;93040.25;;;17.31;71.17
61345;BME280;47216;42.656;23.232;2022-09-28T08:31:01;93042.56;;;17.32;71.91
61345;BME280;47216;42.656;23.232;2022-09-28T08:33:28;93041.00;;;17.49;71.18
61345;BME280;47216;42.656;23.232;2022-09-28T08:35:55;93043.19;;;17.55;71.79
61345;BME280;47216;42.656;23.232;2022-09-28T08:38:23;93041.19;;;17.61;71.71
61345;BME280;47216;42.656;23.232;2022-09-28T08:41:00;93039.63;;;17.69;71.73
61345;BME280;47216;42.656;23.232;2022-09-28T08:43:58;93041.19;;;17.87;69.66
61345;BME280;47216;42.656;23.232;2022-09-28T08:46:30;93051.13;;;17.90;68.93
61345;BME280;47216;42.656;23.232;2022-09-28T08:49:02;93037.75;;;17.95;68.68
61345;BME280;47216;42.656;23.232;2022-09-28T08:51:36;93044.75;;;17.91;68.09
61345;BME280;47216;42.656;23.232;2022-09-28T08:54:10;93034.69;;;17.93;67.62
61345;BME280;47216;42.656;23.232;2022-09-28T08:56:42;93039.31;;;17.96;67.44
61345;BME280;47216;42.656;23.232;2022-09-28T08:59:12;93025.97;;;17.93;67.24
61345;BME280;47216;42.656;23.232;2022-09-28T09:01:45;93037.47;;;17.88;67.35
61345;BME280;47216;42.656;23.232;2022-09-28T09:04:13;93024.41;;;18.00;67.01
61345;BME280;47216;42.656;23.232;2022-09-28T09:09:44;93035.75;;;17.83;67.54
61345;BME280;47216;42.656;23.232;2022-09-28T09:12:18;93023.94;;;18.07;68.22
61345;BME280;47216;42.656;23.232;2022-09-28T09:15:15;93038.19;;;18.23;67.68
61345;BME280;47216;42.656;23.232;2022-09-28T09:17:50;93029.94;;;18.25;66.83
61345;BME280;47216;42.656;23.232;2022-09-28T09:20:28;93025.75;;;18.33;68.02
61345;BME280;47216;42.656;23.232;2022-09-28T09:23:00;93012.50;;;18.41;67.87
61345;BME280;47216;42.656;23.232;2022-09-28T09:25:39;93013.38;;;18.54;68.17
61345;BME280;47216;42.656;23.232;2022-09-28T09:28:33;93016.25;;;18.70;67.26
61345;BME280;47216;42.656;23.232;2022-09-28T09:31:14;93013.16;;;18.68;67.67
61345;BME280;47216;42.656;23.232;2022-09-28T09:34:05;93008.25;;;18.87;67.27
61345;BME280;47216;42.656;23.232;2022-09-28T09:36:41;93006.34;;;18.97;62.77
61345;BME280;47216;42.656;23.232;2022-09-28T09:39:21;92998.38;;;19.05;62.83
61345;BME280;47216;42.656;23.232;2022-09-28T09:42:03;93013.69;;;19.42;65.04
61345;BME280;47216;42.656;23.232;2022-09-28T09:44:49;93001.63;;;19.53;65.23
61345;BME280;47216;42.656;23.232;2022-09-28T09:47:21;93004.25;;;19.53;62.52
61345;BME280;47216;42.656;23.232;2022-09-28T09:49:54;92998.25;;;19.65;62.55
61345;BME280;47216;42.656;23.232;2022-09-28T09:52:28;92996.66;;;19.72;58.77
61345;BME280;47216;42.656;23.232;2022-09-28T09:55:03;92997.41;;;19.73;56.52
61345;BME280;47216;42.656;23.232;2022-09-28T09:57:37;93008.16;;;19.89;56.60
61345;BME280;47216;42.656;23.232;2022-09-28T10:00:13;92995.09;;;20.05;56.36
61345;BME280;47216;42.656;23.232;2022-09-28T10:02:41;92999.19;;;20.14;55.58
61345;BME280;47216;42.656;23.232;2022-09-28T10:05:18;92990.94;;;20.16;56.62
61345;BME280;47216;42.656;23.232;2022-09-28T10:07:51;92994.78;;;20.06;53.60
61345;BME280;47216;42.656;23.232;2022-09-28T10:10:24;92989.19;;;20.32;54.63
61345;BME280;47216;42.656;23.232;2022-09-28T10:12:52;92989.66;;;20.47;53.14
61345;BME280;47216;42.656;23.232;2022-09-28T10:15:22;92976.97;;;20.52;51.25
61345;BME280;47216;42.656;23.232;2022-09-28T10:17:50;92969.88;;;20.44;49.73
61345;BME280;47216;42.656;23.232;2022-09-28T10:20:17;92969.81;;;20.65;51.74
61345;BME280;47216;42.656;23.232;2022-09-28T10:22:44;92966.84;;;20.91;54.72
61345;BME280;47216;42.656;23.232;2022-09-28T10:25:12;92965.06;;;20.71;50.43
61345;BME280;47216;42.656;23.232;2022-09-28T10:27:42;92963.31;;;20.75;50.33
61345;BME280;47216;42.656;23.232;2022-09-28T10:30:14;92966.06;;;20.66;51.05
61345;BME280;47216;42.656;23.232;2022-09-28T10:32:44;92962.53;;;20.74;53.67
61345;BME280;47216;42.656;23.232;2022-09-28T10:35:19;92968.13;;;20.36;54.52
61345;BME280;47216;42.656;23.232;2022-09-28T10:37:50;92967.47;;;20.51;56.99
61345;BME280;47216;42.656;23.232;2022-09-28T10:40:26;92961.63;;;20.46;56.90
61345;BME280;47216;42.656;23.232;2022-09-28T10:42:59;92948.06;;;20.72;53.60
61345;BME280;47216;42.656;23.232;2022-09-28T10:45:31;92957.56;;;20.73;51.69
61345;BME280;47216;42.656;23.232;2022-09-28T10:48:03;92949.16;;;20.83;50.02
61345;BME280;47216;42.656;23.232;2022-09-28T10:50:31;92958.84;;;21.04;50.79
61345;BME280;47216;42.656;23.232;2022-09-28T10:53:10;92965.88;;;21.12;52.61
61345;BME280;47216;42.656;23.232;2022-09-28T10:55:37;92953.72;;;21.23;53.16
61345;BME280;47216;42.656;23.232;2022-09-28T10:58:23;92943.78;;;21.20;51.23
61345;BME280;47216;42.656;23.232;2022-09-28T11:00:50;92941.81;;;21.17;50.08
61345;BME280;47216;42.656;23.232;2022-09-28T11:03:22;92950.28;;;21.23;50.79
61345;BME280;47216;42.656;23.232;2022-09-28T11:05:54;92949.72;;;21.29;50.13
61345;BME280;47216;42.656;23.232;2022-09-28T11:08:25;92939.38;;;21.12;49.63
61345;BME280;47216;42.656;23.232;2022-09-28T11:11:08;92937.72;;;21.07;48.73
61345;BME280;47216;42.656;23.232;2022-09-28T11:13:46;92931.66;;;21.19;51.41
61345;BME280;47216;42.656;23.232;2022-09-28T11:16:23;92922.63;;;21.36;52.52
61345;BME280;47216;42.656;23.232;2022-09-28T11:18:51;92923.91;;;21.54;50.47
61345;BME280;47216;42.656;23.232;2022-09-28T11:21:21;92919.25;;;21.64;50.19
61345;BME280;47216;42.656;23.232;2022-09-28T11:23:57;92917.81;;;21.82;50.60
61345;BME280;47216;42.656;23.232;2022-09-28T11:26:26;92907.13;;;22.10;51.87
61345;BME280;47216;42.656;23.232;2022-09-28T11:28:53;92903.75;;;22.26;52.60
61345;BME280;47216;42.656;23.232;2022-09-28T11:31:25;92905.84;;;22.20;48.99
61345;BME280;47216;42.656;23.232;2022-09-28T11:34:03;92909.06;;;22.26;49.52
61345;BME280;47216;42.656;23.232;2022-09-28T11:36:43;92900.97;;;22.38;47.24
61345;BME280;47216;42.656;23.232;2022-09-28T11:39:19;92903.63;;;22.22;46.87
61345;BME280;47216;42.656;23.232;2022-09-28T11:42:00;92919.25;;;22.23;46.19
61345;BME280;47216;42.656;23.232;2022-09-28T11:44:38;92920.06;;;21.96;47.28
61345;BME280;47216;42.656;23.232;2022-09-28T11:47:32;92912.97;;;22.00;46.82
61345;BME280;47216;42.656;23.232;2022-09-28T11:50:11;92919.72;;;21.97;48.21
61345;BME280;47216;42.656;23.232;2022-09-28T11:52:45;92913.00;;;21.72;48.43
61345;BME280;47216;42.656;23.232;2022-09-28T11:55:21;92901.97;;;21.70;46.84
61345;BME280;47216;42.656;23.232;2022-09-28T11:57:55;92904.78;;;21.61;47.42
61345;BME280;47216;42.656;23.232;2022-09-28T12:00:23;92907.97;;;21.82;47.94
61345;BME280;47216;42.656;23.232;2022-09-28T12:02:54;92915.84;;;21.95;49.04
61345;BME280;47216;42.656;23.232;2022-09-28T12:05:26;92915.25;;;22.01;47.63
61345;BME280;47216;42.656;23.232;2022-09-28T12:07:56;92909.34;;;22.08;47.62
61345;BME280;47216;42.656;23.232;2022-09-28T12:10:32;92910.81;;;22.06;47.48
61345;BME280;47216;42.656;23.232;2022-09-28T12:13:04;92909.19;;;22.01;47.89
61345;BME280;47216;42.656;23.232;2022-09-28T12:15:41;92912.69;;;22.05;49.41
61345;BME280;47216;42.656;23.232;2022-09-28T12:18:14;92909.44;;;22.12;48.04
61345;BME280;47216;42.656;23.232;2022-09-28T12:20:47;92898.22;;;22.18;48.34
61345;BME280;47216;42.656;23.232;2022-09-28T12:23:20;92894.75;;;22.30;47.94
61345;BME280;47216;42.656;23.232;2022-09-28T12:25:54;92908.31;;;22.13;48.24
61345;BME280;47216;42.656;23.232;2022-09-28T12:28:30;92913.13;;;22.07;52.35
61345;BME280;47216;42.656;23.232;2022-09-28T12:31:08;92908.91;;;21.90;48.37
61345;BME280;47216;42.656;23.232;2022-09-28T12:33:39;92907.34;;;21.73;51.44
61345;BME280;47216;42.656;23.232;2022-09-28T12:36:29;92908.28;;;21.65;49.28
61345;BME280;47216;42.656;23.232;2022-09-28T12:42:16;92900.56;;;21.60;46.79
61345;BME280;47216;42.656;23.232;2022-09-28T12:45:02;92908.25;;;21.37;47.82
61345;BME280;47216;42.656;23.232;2022-09-28T12:47:44;92891.31;;;21.54;50.61
61345;BME280;47216;42.656;23.232;2022-09-28T12:50:22;92903.97;;;21.32;48.51
61345;BME280;47216;42.656;23.232;2022-09-28T12:53:06;92905.09;;;21.31;48.90
61345;BME280;47216;42.656;23.232;2022-09-28T12:55:49;92911.72;;;21.25;48.24
61345;BME280;47216;42.656;23.232;2022-09-28T12:58:46;92912.09;;;21.11;50.85
61345;BME280;47216;42.656;23.232;2022-09-28T13:01:37;92916.03;;;20.89;49.08
61345;BME280;47216;42.656;23.232;2022-09-28T13:07:15;92921.47;;;20.81;49.68
61345;BME280;47216;42.656;23.232;2022-09-28T13:10:01;92916.47;;;20.79;49.42
61345;BME280;47216;42.656;23.232;2022-09-28T13:12:39;92907.66;;;20.87;48.50
61345;BME280;47216;42.656;23.232;2022-09-28T13:15:33;92906.97;;;20.90;49.26
61345;BME280;47216;42.656;23.232;2022-09-28T13:18:08;92901.00;;;20.93;49.87
61345;BME280;47216;42.656;23.232;2022-09-28T13:20:45;92910.94;;;20.96;49.20
61345;BME280;47216;42.656;23.232;2022-09-28T13:23:20;92904.56;;;20.85;49.39